Time;durP1;ratioP1;P1;durP2;ratioP2;P2;SDS_P1;SDS_P2;PMS_P1;PMS_P2;Temp;Humidity;BMP_temperature;BMP_pressure;BME280_temperature;BME280_humidity;BME280_pressure;Samples;Min_cycle;Max_cycle;Signal;HPM_P1;HPM_P2
2022/05/27 00:01:51;;;;;;;1.52;0.90;;;17.50;98.60;;;;;;5073256;28;20525;-91
2022/05/27 00:04:17;;;;;;;3.45;1.00;;;17.40;98.60;;;;;;5073123;28;20025;-91
2022/05/27 00:06:42;;;;;;;2.45;1.20;;;17.40;98.60;;;;;;5072796;28;20021;-90
2022/05/27 00:09:08;;;;;;;2.13;1.20;;;17.40;98.60;;;;;;5073060;28;20459;-91
2022/05/27 00:11:34;;;;;;;1.92;0.88;;;17.40;98.60;;;;;;5076307;28;20052;-90
2022/05/27 00:14:00;;;;;;;2.47;1.05;;;17.40;98.60;;;;;;5076090;28;20115;-90
2022/05/27 00:16:28;;;;;;;1.83;0.80;;;17.40;98.60;;;;;;5076991;28;20029;-90
2022/05/27 00:18:54;;;;;;;2.25;1.23;;;17.40;98.60;;;;;;5076039;28;20032;-91
2022/05/27 00:21:20;;;;;;;1.58;1.00;;;17.40;98.60;;;;;;5076770;28;20028;-90
2022/05/27 00:23:46;;;;;;;1.60;1.00;;;17.40;98.60;;;;;;5076390;28;20016;-90
2022/05/27 00:26:12;;;;;;;2.38;1.02;;;17.40;98.60;;;;;;5077040;28;20021;-90
2022/05/27 00:28:38;;;;;;;2.05;1.10;;;17.40;98.60;;;;;;5076794;28;20024;-91
2022/05/27 00:31:05;;;;;;;2.70;0.80;;;17.40;98.60;;;;;;5077044;28;20031;-91
2022/05/27 00:33:32;;;;;;;2.20;1.10;;;17.30;98.50;;;;;;5077738;28;20500;-90
2022/05/27 00:35:58;;;;;;;2.90;1.08;;;17.30;98.60;;;;;;5077103;28;20021;-91
2022/05/27 00:38:23;;;;;;;2.00;1.10;;;17.40;98.60;;;;;;5076871;28;20452;-91
2022/05/27 00:40:54;;;;;;;2.78;1.00;;;17.40;98.60;;;;;;5076662;28;20028;-90
2022/05/27 00:43:21;;;;;;;2.17;0.90;;;17.40;98.60;;;;;;5076976;28;20463;-90
2022/05/27 00:46:04;;;;;;;2.10;0.98;;;17.30;98.60;;;;;;5077121;28;20067;-91
2022/05/27 00:48:32;;;;;;;1.95;1.02;;;17.30;98.60;;;;;;5077378;28;20360;-90
2022/05/27 00:51:00;;;;;;;6.82;1.27;;;17.30;98.60;;;;;;5076948;28;20092;-91
2022/05/27 00:53:38;;;;;;;1.85;1.00;;;17.30;98.60;;;;;;5076462;28;20391;-90
2022/05/27 00:56:07;;;;;;;3.78;1.08;;;17.30;98.60;;;;;;5075861;28;20021;-90
2022/05/27 00:58:37;;;;;;;2.90;1.10;;;17.30;98.60;;;;;;5076760;28;20108;-91
2022/05/27 01:01:04;;;;;;;2.38;1.10;;;17.30;98.60;;;;;;5075926;28;20029;-91
2022/05/27 01:03:32;;;;;;;2.83;0.90;;;17.30;98.60;;;;;;5076094;28;20468;-90
2022/05/27 01:05:58;;;;;;;4.38;1.00;;;17.30;98.70;;;;;;5076306;28;20024;-91
2022/05/27 01:08:28;;;;;;;3.10;1.42;;;17.30;98.70;;;;;;5076408;28;20021;-90
2022/05/27 01:11:09;;;;;;;2.45;1.00;;;17.30;98.70;;;;;;5076025;28;20123;-91
2022/05/27 01:13:54;;;;;;;2.25;0.90;;;17.20;98.60;;;;;;5076283;28;20031;-91
2022/05/27 01:16:53;;;;;;;1.80;0.90;;;17.30;98.70;;;;;;5076858;28;20486;-91
2022/05/27 01:20:20;;;;;;;3.03;1.02;;;17.20;98.60;;;;;;5075938;28;20029;-91
2022/05/27 01:23:10;;;;;;;1.58;0.90;;;17.20;98.70;;;;;;5076023;28;20052;-91
2022/05/27 01:25:41;;;;;;;1.45;0.88;;;17.20;98.60;;;;;;5075129;28;20032;-91
2022/05/27 01:28:21;;;;;;;2.35;1.08;;;17.20;98.60;;;;;;5075492;28;20023;-91
2022/05/27 01:31:08;;;;;;;3.00;1.00;;;17.20;98.60;;;;;;5075919;28;20464;-91
2022/05/27 01:33:59;;;;;;;2.17;0.95;;;17.20;98.60;;;;;;5074475;28;20035;-91
2022/05/27 01:36:37;;;;;;;4.32;1.10;;;17.20;98.60;;;;;;5074932;28;20020;-91
2022/05/27 01:39:21;;;;;;;2.00;1.00;;;17.20;98.60;;;;;;5075301;28;20035;-90
2022/05/27 01:42:07;;;;;;;1.27;0.80;;;17.10;98.60;;;;;;5075864;28;20050;-91
2022/05/27 01:44:41;;;;;;;2.80;1.00;;;17.10;98.60;;;;;;5074841;28;20518;-91
2022/05/27 01:47:14;;;;;;;2.50;0.90;;;17.20;98.70;;;;;;5075558;28;20103;-91
2022/05/27 01:49:47;;;;;;;2.13;1.13;;;17.20;98.60;;;;;;5075876;28;20051;-91
2022/05/27 01:52:24;;;;;;;2.00;0.80;;;17.10;98.60;;;;;;5075641;28;20024;-90
2022/05/27 01:55:08;;;;;;;1.75;0.95;;;17.10;98.70;;;;;;5075628;28;20120;-91
2022/05/27 01:57:43;;;;;;;1.55;0.82;;;17.10;98.60;;;;;;5074593;28;20021;-90
2022/05/27 02:00:16;;;;;;;3.10;0.80;;;17.10;98.60;;;;;;5074361;28;20033;-91
2022/05/27 02:02:54;;;;;;;2.00;1.25;;;17.10;98.60;;;;;;5075448;28;20028;-91
2022/05/27 02:05:32;;;;;;;2.38;1.17;;;17.10;98.60;;;;;;5075183;28;20021;-90
2022/05/27 02:08:16;;;;;;;2.65;1.20;;;17.10;98.60;;;;;;5075460;28;20024;-91
2022/05/27 02:11:00;;;;;;;1.50;0.93;;;17.10;98.60;;;;;;5075215;28;20052;-90
2022/05/27 02:13:57;;;;;;;2.87;1.10;;;17.10;98.60;;;;;;5074949;28;20031;-91
2022/05/27 02:16:47;;;;;;;2.15;0.90;;;17.00;98.60;;;;;;5074941;28;20362;-90
2022/05/27 02:19:16;;;;;;;1.48;0.85;;;17.10;98.60;;;;;;5073704;28;20025;-91
2022/05/27 02:21:51;;;;;;;1.92;1.00;;;17.00;98.60;;;;;;5073751;28;20547;-91
2022/05/27 02:24:24;;;;;;;1.50;0.65;;;17.00;98.60;;;;;;5074390;28;20063;-91
2022/05/27 02:27:02;;;;;;;2.03;1.08;;;17.00;98.60;;;;;;5073886;28;20365;-91
2022/05/27 02:29:31;;;;;;;2.03;0.90;;;17.00;98.60;;;;;;5073924;28;20021;-91
2022/05/27 02:32:10;;;;;;;1.10;0.80;;;17.00;98.60;;;;;;5073734;28;20091;-90
2022/05/27 02:37:32;;;;;;;2.55;0.90;;;17.00;98.60;;;;;;5075366;28;20074;-91
2022/05/27 02:40:01;;;;;;;2.92;0.90;;;17.00;98.60;;;;;;5074233;28;20028;-90
2022/05/27 02:43:04;;;;;;;0.70;0.60;;;16.90;98.50;;;;;;5074511;28;20032;-90
2022/05/27 02:45:39;;;;;;;1.98;1.00;;;17.00;98.60;;;;;;5073978;28;20020;-91
2022/05/27 02:48:33;;;;;;;2.50;0.65;;;16.90;98.50;;;;;;5073894;28;20020;-91
2022/05/27 02:51:11;;;;;;;3.90;0.93;;;17.00;98.60;;;;;;5072107;28;20028;-91
2022/05/27 02:53:42;;;;;;;2.42;1.00;;;16.90;98.60;;;;;;5073680;28;20124;-91
2022/05/27 02:56:21;;;;;;;1.77;0.82;;;17.00;98.60;;;;;;5073600;28;20063;-90
2022/05/27 02:58:48;;;;;;;2.03;0.93;;;16.90;98.50;;;;;;5073685;28;20025;-90
2022/05/27 03:01:14;;;;;;;1.95;0.80;;;16.90;98.50;;;;;;5073201;28;20085;-90
2022/05/27 03:03:40;;;;;;;1.85;0.90;;;16.90;98.50;;;;;;5074203;28;20020;-90
2022/05/27 03:06:23;;;;;;;1.67;0.80;;;16.90;98.50;;;;;;5073983;28;20074;-90
2022/05/27 03:08:54;;;;;;;1.33;0.80;;;16.90;98.50;;;;;;5075092;28;20035;-91
2022/05/27 03:11:46;;;;;;;3.15;0.88;;;16.90;98.50;;;;;;5074647;28;20048;-91
2022/05/27 03:14:27;;;;;;;3.28;0.95;;;16.90;98.60;;;;;;5074734;28;20087;-91
2022/05/27 03:17:26;;;;;;;1.42;0.68;;;16.90;98.60;;;;;;5075094;28;20029;-91
2022/05/27 03:20:37;;;;;;;1.52;0.70;;;16.90;98.50;;;;;;5074592;28;20600;-91
2022/05/27 03:23:25;;;;;;;3.38;0.93;;;16.90;98.50;;;;;;5075013;28;20028;-91
2022/05/27 03:26:01;;;;;;;1.92;0.98;;;16.90;98.50;;;;;;5075735;28;20539;-91
2022/05/27 03:28:42;;;;;;;2.05;1.00;;;16.80;98.50;;;;;;5074833;28;20028;-91
2022/05/27 03:31:38;;;;;;;1.30;0.82;;;16.80;98.50;;;;;;5074869;28;20032;-91
2022/05/27 03:34:23;;;;;;;2.90;0.90;;;16.80;98.50;;;;;;5073585;28;20392;-91
2022/05/27 03:37:11;;;;;;;1.67;0.90;;;16.80;98.50;;;;;;5074379;28;20037;-92
2022/05/27 03:40:08;;;;;;;2.03;1.00;;;16.80;98.50;;;;;;5073651;28;20025;-91
2022/05/27 03:42:37;;;;;;;2.40;0.73;;;16.80;98.50;;;;;;5073649;28;20051;-91
2022/05/27 03:45:10;;;;;;;2.92;0.85;;;16.80;98.50;;;;;;5076295;28;20028;-91
2022/05/27 03:47:37;;;;;;;1.25;0.88;;;16.80;98.50;;;;;;5077256;28;20020;-91
2022/05/27 03:50:04;;;;;;;1.70;0.77;;;16.80;98.50;;;;;;5078320;28;20026;-91
2022/05/27 03:52:38;;;;;;;3.95;0.90;;;16.80;98.50;;;;;;5078369;28;20487;-91
2022/05/27 03:55:05;;;;;;;5.20;0.85;;;16.80;98.50;;;;;;5078605;28;20070;-91
2022/05/27 03:57:31;;;;;;;1.42;0.80;;;16.80;98.50;;;;;;5078225;28;20024;-91
2022/05/27 03:59:56;;;;;;;6.50;1.08;;;16.70;98.40;;;;;;5078207;28;20024;-91
2022/05/27 04:02:22;;;;;;;2.70;0.88;;;16.70;98.40;;;;;;5078318;28;20039;-91
2022/05/27 04:04:48;;;;;;;3.63;1.13;;;16.80;98.50;;;;;;5078586;28;20029;-91
2022/05/27 04:07:14;;;;;;;2.55;0.82;;;16.80;98.50;;;;;;5078039;28;20027;-92
2022/05/27 04:09:40;;;;;;;2.05;0.80;;;16.80;98.50;;;;;;5078071;28;20024;-91
2022/05/27 04:12:06;;;;;;;1.83;0.70;;;16.80;98.40;;;;;;5077573;28;20140;-91
2022/05/27 04:14:32;;;;;;;0.98;0.70;;;16.80;98.40;;;;;;5078055;28;20056;-91
2022/05/27 04:19:42;;;;;;;3.45;1.13;;;16.80;98.50;;;;;;5079492;28;20047;-91
2022/05/27 04:22:08;;;;;;;3.20;0.85;;;16.80;98.50;;;;;;5080504;28;20040;-92
2022/05/27 04:24:34;;;;;;;4.38;1.00;;;16.70;98.50;;;;;;5080745;28;20036;-93
2022/05/27 04:27:06;;;;;;;6.35;1.15;;;16.80;98.50;;;;;;5081116;28;20384;-93
2022/05/27 04:29:31;;;;;;;1.02;0.70;;;16.80;98.50;;;;;;5080774;28;20116;-93
2022/05/27 04:31:57;;;;;;;2.00;0.80;;;16.80;98.50;;;;;;5080323;28;20029;-92
2022/05/27 04:34:23;;;;;;;2.70;0.77;;;16.80;98.50;;;;;;5079685;28;20032;-93
2022/05/27 04:36:48;;;;;;;2.13;0.73;;;16.80;98.50;;;;;;5079862;28;20036;-92
2022/05/27 04:39:16;;;;;;;2.63;0.80;;;16.80;98.50;;;;;;5080133;28;20060;-92
2022/05/27 04:41:41;;;;;;;1.30;0.65;;;16.80;98.50;;;;;;5081777;28;20024;-93
2022/05/27 04:44:08;;;;;;;3.17;0.73;;;16.80;98.50;;;;;;5080621;28;20112;-93
2022/05/27 04:46:34;;;;;;;2.55;0.80;;;16.80;98.50;;;;;;5080302;28;20020;-93
2022/05/27 04:48:59;;;;;;;1.63;0.80;;;16.80;98.60;;;;;;5080906;28;20017;-93
2022/05/27 04:51:25;;;;;;;2.80;0.80;;;16.80;98.60;;;;;;5080157;28;20385;-93
2022/05/27 04:53:51;;;;;;;3.03;1.00;;;16.80;98.50;;;;;;5079250;28;20036;-93
2022/05/27 04:56:16;;;;;;;2.17;0.93;;;16.80;98.60;;;;;;5079304;28;20025;-93
2022/05/27 04:58:42;;;;;;;4.20;0.90;;;16.80;98.60;;;;;;5078698;28;20032;-92
2022/05/27 05:01:08;;;;;;;4.20;0.70;;;16.80;98.60;;;;;;5080119;28;20074;-93
2022/05/27 05:03:33;;;;;;;1.63;0.70;;;16.80;98.60;;;;;;5080453;28;20027;-93
2022/05/27 05:05:59;;;;;;;3.80;0.80;;;16.80;98.60;;;;;;5080293;28;20487;-92
2022/05/27 05:08:36;;;;;;;2.55;0.90;;;16.80;98.70;;;;;;5080801;28;20032;-93
2022/05/27 05:11:03;;;;;;;2.35;0.95;;;16.80;98.70;;;;;;5080694;28;20183;-93
2022/05/27 05:13:30;;;;;;;3.80;0.95;;;16.80;98.70;;;;;;5081614;28;20035;-93
2022/05/27 05:15:57;;;;;;;2.17;0.90;;;16.80;98.70;;;;;;5081869;28;20027;-93
2022/05/27 05:18:23;;;;;;;1.90;0.70;;;16.80;98.80;;;;;;5082797;28;20085;-93
2022/05/27 05:20:49;;;;;;;3.58;0.90;;;16.90;98.80;;;;;;5082527;28;20032;-93
2022/05/27 05:23:15;;;;;;;1.45;0.70;;;16.80;98.80;;;;;;5082599;28;20116;-93
2022/05/27 05:25:41;;;;;;;1.58;1.00;;;16.80;98.80;;;;;;5083321;28;20091;-93
2022/05/27 05:28:07;;;;;;;1.35;0.80;;;16.80;99.40;;;;;;5083317;28;20480;-93
2022/05/27 05:30:34;;;;;;;1.60;0.65;;;16.80;99.10;;;;;;5084646;28;20044;-93
2022/05/27 05:33:00;;;;;;;1.50;0.75;;;16.80;99.10;;;;;;5086697;28;20060;-93
2022/05/27 05:35:25;;;;;;;1.25;0.80;;;16.80;99.10;;;;;;5083922;28;20028;-93
2022/05/27 05:37:51;;;;;;;2.22;0.90;;;16.80;99.10;;;;;;5080639;28;20031;-92
2022/05/27 05:40:17;;;;;;;1.80;1.05;;;16.90;99.20;;;;;;5083499;28;20020;-92
2022/05/27 05:42:43;;;;;;;3.28;1.00;;;16.90;99.30;;;;;;5084225;28;20027;-92
2022/05/27 05:45:12;;;;;;;1.20;0.80;;;16.90;99.40;;;;;;5083325;28;20475;-93
2022/05/27 05:47:38;;;;;;;1.35;0.75;;;16.90;99.40;;;;;;5083119;28;20078;-93
2022/05/27 05:50:04;;;;;;;1.63;0.98;;;16.90;99.40;;;;;;5084845;28;20046;-93
2022/05/27 05:52:30;;;;;;;2.22;1.00;;;16.90;99.50;;;;;;5083908;28;20029;-93
2022/05/27 05:54:56;;;;;;;1.40;0.90;;;16.90;99.50;;;;;;5082115;28;20036;-93
2022/05/27 05:57:22;;;;;;;1.83;0.90;;;16.90;99.50;;;;;;5084022;28;20038;-93
2022/05/27 05:59:47;;;;;;;1.70;1.08;;;16.90;99.50;;;;;;5083124;28;20028;-92
2022/05/27 06:02:13;;;;;;;2.78;1.30;;;16.90;99.60;;;;;;5082255;28;20016;-94
2022/05/27 06:04:39;;;;;;;1.25;1.05;;;16.90;99.70;;;;;;5082555;28;20028;-93
2022/05/27 06:07:05;;;;;;;3.78;0.95;;;16.90;99.80;;;;;;5082130;28;20074;-92
2022/05/27 06:09:31;;;;;;;1.90;1.10;;;16.90;99.80;;;;;;5081210;28;20070;-93
2022/05/27 06:11:59;;;;;;;2.63;1.13;;;16.90;99.80;;;;;;5079855;28;20067;-92
2022/05/27 06:14:25;;;;;;;1.83;1.00;;;16.90;99.90;;;;;;5079988;28;20020;-93
2022/05/27 06:16:51;;;;;;;2.30;1.10;;;16.90;99.80;;;;;;5079764;28;20025;-93
2022/05/27 06:19:17;;;;;;;2.72;0.80;;;16.90;99.90;;;;;;5081601;28;20025;-93
2022/05/27 06:21:43;;;;;;;2.05;1.10;;;16.90;99.90;;;;;;5083537;28;20036;-93
2022/05/27 06:24:10;;;;;;;3.72;1.08;;;16.90;99.70;;;;;;5081788;28;20025;-93
2022/05/27 06:26:40;;;;;;;3.15;1.02;;;16.90;99.90;;;;;;5077630;28;20053;-93
2022/05/27 06:34:35;;;;;;;2.78;1.25;;;17.00;99.90;;;;;;5081524;28;20055;-93
2022/05/27 06:37:03;;;;;;;4.38;1.08;;;16.90;99.90;;;;;;5079179;28;20035;-91
2022/05/27 06:39:31;;;;;;;3.35;1.10;;;17.00;99.90;;;;;;5079993;28;20024;-93
2022/05/27 06:41:57;;;;;;;2.25;1.10;;;17.00;99.90;;;;;;5080504;28;20055;-93
2022/05/27 06:44:22;;;;;;;1.52;1.00;;;17.00;99.90;;;;;;5079315;28;20498;-93
2022/05/27 06:46:51;;;;;;;2.53;1.13;;;17.00;99.90;;;;;;5080053;28;20170;-93
2022/05/27 06:49:18;;;;;;;3.80;1.30;;;16.90;99.90;;;;;;5081431;28;20024;-92
2022/05/27 06:51:45;;;;;;;4.18;1.08;;;17.00;99.90;;;;;;5081149;28;20034;-92
2022/05/27 06:54:11;;;;;;;1.77;1.15;;;17.00;99.90;;;;;;5080545;28;20028;-91
2022/05/27 06:56:39;;;;;;;3.20;1.25;;;17.00;99.90;;;;;;5080188;28;20475;-91
2022/05/27 06:59:06;;;;;;;3.88;1.05;;;16.90;99.90;;;;;;5080171;28;20047;-92
2022/05/27 07:01:32;;;;;;;2.08;1.15;;;17.00;99.90;;;;;;5080038;28;20025;-92
2022/05/27 07:03:58;;;;;;;2.10;1.20;;;17.00;99.90;;;;;;5079825;28;20016;-92
2022/05/27 07:06:27;;;;;;;4.03;1.08;;;17.00;99.90;;;;;;5080331;28;20023;-93
2022/05/27 07:08:52;;;;;;;3.35;1.30;;;17.00;99.90;;;;;;5079652;28;20050;-90
2022/05/27 07:11:18;;;;;;;3.10;1.35;;;17.00;99.90;;;;;;5078563;28;20072;-92
2022/05/27 07:13:44;;;;;;;3.25;0.98;;;17.00;99.90;;;;;;5078434;28;20025;-93
2022/05/27 07:16:10;;;;;;;1.75;1.10;;;17.00;99.90;;;;;;5077529;28;20028;-92
2022/05/27 07:18:36;;;;;;;1.77;1.10;;;17.00;99.90;;;;;;5076779;28;20021;-92
2022/05/27 07:21:04;;;;;;;2.38;1.40;;;17.00;99.90;;;;;;5077784;28;20427;-92
2022/05/27 07:23:30;;;;;;;2.05;1.15;;;17.00;99.90;;;;;;5077582;28;20491;-92
2022/05/27 07:25:57;;;;;;;2.38;1.25;;;17.00;99.90;;;;;;5081925;28;20017;-93
2022/05/27 07:28:23;;;;;;;2.45;1.20;;;17.00;99.90;;;;;;5078612;28;20115;-91
2022/05/27 07:30:49;;;;;;;2.45;1.00;;;17.00;99.90;;;;;;5077367;28;20016;-92
2022/05/27 07:33:15;;;;;;;1.48;1.10;;;17.00;99.90;;;;;;5076809;28;20029;-91
2022/05/27 07:35:41;;;;;;;4.13;1.13;;;17.00;99.90;;;;;;5079065;28;20104;-91
2022/05/27 07:38:07;;;;;;;3.00;1.10;;;17.00;99.90;;;;;;5080070;28;20032;-92
2022/05/27 07:40:33;;;;;;;3.15;1.10;;;17.10;99.90;;;;;;5077826;28;20054;-92
2022/05/27 07:42:58;;;;;;;2.15;1.05;;;17.10;99.90;;;;;;5078066;28;20544;-91
2022/05/27 07:45:27;;;;;;;1.65;1.08;;;17.10;99.90;;;;;;5075494;28;20043;-91
2022/05/27 07:47:56;;;;;;;1.20;1.00;;;17.10;99.90;;;;;;5078910;28;20031;-91
2022/05/27 07:50:23;;;;;;;3.55;1.40;;;17.10;99.90;;;;;;5080426;28;20031;-92
2022/05/27 07:52:49;;;;;;;1.80;0.93;;;17.10;99.90;;;;;;5081528;28;20020;-92
2022/05/27 07:55:15;;;;;;;7.93;1.35;;;17.10;99.90;;;;;;5078911;28;20056;-92
2022/05/27 07:57:47;;;;;;;3.88;1.20;;;17.10;99.90;;;;;;5081201;28;20032;-92
2022/05/27 08:00:27;;;;;;;5.85;1.33;;;17.20;99.90;;;;;;5080097;28;20036;-92
2022/05/27 08:02:52;;;;;;;4.55;1.05;;;17.20;99.90;;;;;;5079197;28;20086;-92
2022/05/27 08:05:22;;;;;;;3.72;1.30;;;17.20;99.90;;;;;;5075970;28;20498;-92
2022/05/27 08:07:48;;;;;;;9.25;1.55;;;17.20;99.90;;;;;;5076244;28;20041;-92
2022/05/27 08:10:22;;;;;;;3.45;0.90;;;17.20;99.90;;;;;;5076466;28;20491;-94
2022/05/27 08:12:48;;;;;;;2.88;1.20;;;17.30;99.90;;;;;;5077540;28;20012;-94
2022/05/27 08:15:14;;;;;;;4.70;1.35;;;17.30;99.90;;;;;;5080199;28;20054;-94
2022/05/27 08:17:40;;;;;;;3.95;1.25;;;17.30;99.90;;;;;;5077557;28;20028;-94
2022/05/27 08:20:09;;;;;;;2.22;1.23;;;17.30;99.90;;;;;;5078096;28;20067;-93
2022/05/27 08:22:34;;;;;;;2.08;1.00;;;17.30;99.90;;;;;;5076886;28;20032;-94
2022/05/27 08:25:01;;;;;;;2.17;1.10;;;17.30;99.90;;;;;;5074978;28;20502;-92
2022/05/27 08:27:26;;;;;;;2.65;1.17;;;17.30;99.90;;;;;;5074828;28;20052;-92
2022/05/27 08:29:52;;;;;;;3.47;1.40;;;17.30;99.90;;;;;;5076079;28;20025;-94
2022/05/27 08:32:18;;;;;;;2.70;1.40;;;17.30;99.90;;;;;;5080012;28;20028;-93
2022/05/27 08:40:32;;;;;;;5.13;1.15;;;17.30;99.90;;;;;;5082408;28;20138;-91
2022/05/27 08:43:18;;;;;;;2.80;1.45;;;17.30;99.90;;;;;;5079895;28;20384;-93
2022/05/27 08:45:55;;;;;;;2.65;1.20;;;17.30;99.90;;;;;;5080639;28;20021;-93
2022/05/27 08:48:24;;;;;;;2.45;1.30;;;17.30;99.90;;;;;;5080440;28;20032;-93
2022/05/27 08:50:55;;;;;;;2.17;1.08;;;17.30;99.90;;;;;;5079299;28;20020;-92
2022/05/27 08:53:30;;;;;;;3.38;1.30;;;17.30;99.90;;;;;;5079644;28;20482;-92
2022/05/27 09:01:53;;;;;;;3.35;1.23;;;17.40;99.90;;;;;;5080239;28;20047;-92
2022/05/27 09:04:43;;;;;;;2.28;1.30;;;17.40;99.90;;;;;;5079691;28;20016;-93
2022/05/27 09:07:30;;;;;;;2.50;1.10;;;17.40;99.90;;;;;;5077715;28;20027;-93
2022/05/27 09:10:03;;;;;;;2.08;1.10;;;17.40;99.90;;;;;;5078476;28;20052;-93
2022/05/27 09:12:44;;;;;;;3.75;1.08;;;17.40;99.90;;;;;;5078587;28;20559;-92
2022/05/27 09:15:39;;;;;;;2.47;1.10;;;17.40;99.90;;;;;;5077774;28;20025;-93
2022/05/27 09:18:33;;;;;;;5.60;1.30;;;17.50;99.90;;;;;;5077587;28;20025;-93
2022/05/27 09:21:14;;;;;;;4.60;1.30;;;17.50;99.90;;;;;;5079802;28;20371;-93
2022/05/27 09:23:50;;;;;;;3.47;1.23;;;17.50;99.90;;;;;;5078981;28;20108;-94
2022/05/27 09:26:32;;;;;;;3.65;1.40;;;17.50;99.90;;;;;;5078697;28;20020;-92
2022/05/27 09:29:16;;;;;;;5.28;1.40;;;17.60;99.90;;;;;;5078423;28;20068;-92
2022/05/27 09:31:50;;;;;;;1.80;0.95;;;17.60;99.90;;;;;;5078615;28;20111;-92
2022/05/27 09:34:16;;;;;;;4.40;1.25;;;17.70;99.90;;;;;;5062030;28;20109;-93
2022/05/27 09:36:47;;;;;;;5.35;1.33;;;17.70;99.90;;;;;;5077480;28;20048;-92
2022/05/27 09:39:20;;;;;;;2.88;1.00;;;17.70;99.90;;;;;;5075297;28;20029;-90
2022/05/27 09:42:11;;;;;;;2.33;1.10;;;17.80;99.90;;;;;;5058178;28;20024;-90
2022/05/27 09:44:49;;;;;;;3.90;1.20;;;17.90;99.70;;;;;;5074487;28;20077;-90
2022/05/27 09:47:16;;;;;;;3.20;1.05;;;17.90;99.70;;;;;;5074713;28;20078;-89
2022/05/27 09:49:45;;;;;;;3.78;1.40;;;17.90;99.50;;;;;;5075662;28;20127;-88
2022/05/27 09:52:11;;;;;;;3.47;1.00;;;18.00;99.50;;;;;;5075299;28;20028;-91
2022/05/27 09:54:59;;;;;;;2.75;1.13;;;18.00;99.40;;;;;;5074175;28;20381;-93
2022/05/27 09:57:35;;;;;;;3.20;1.10;;;18.10;99.30;;;;;;5075191;28;20020;-93
2022/05/27 10:00:04;;;;;;;1.85;0.90;;;18.10;99.20;;;;;;5074662;28;20131;-90
2022/05/27 10:02:37;;;;;;;4.15;1.20;;;18.10;99.20;;;;;;5075328;28;20030;-89
2022/05/27 10:05:22;;;;;;;5.38;1.20;;;18.10;99.20;;;;;;5074435;28;20111;-92
2022/05/27 10:07:53;;;;;;;1.85;1.00;;;18.10;99.10;;;;;;5075112;28;20028;-92
2022/05/27 10:10:25;;;;;;;2.63;1.10;;;18.10;99.10;;;;;;5075449;28;20064;-92
2022/05/27 10:12:51;;;;;;;2.22;1.20;;;18.10;99.00;;;;;;5077062;28;20086;-93
2022/05/27 10:15:30;;;;;;;1.60;0.95;;;18.10;99.00;;;;;;5078370;28;20032;-93
2022/05/27 10:18:14;;;;;;;3.85;0.90;;;18.10;98.90;;;;;;5075427;28;20024;-92
2022/05/27 10:20:41;;;;;;;2.67;1.20;;;18.10;98.90;;;;;;5076673;28;20456;-90
2022/05/27 10:23:12;;;;;;;2.53;0.93;;;18.20;99.20;;;;;;5075976;28;20040;-92
2022/05/27 10:25:43;;;;;;;2.42;0.98;;;18.20;98.80;;;;;;5059564;28;20024;-92
2022/05/27 10:28:21;;;;;;;2.47;0.90;;;18.20;98.70;;;;;;5075163;28;20108;-92
2022/05/27 10:31:00;;;;;;;1.13;0.90;;;18.30;98.60;;;;;;5076849;28;20032;-92
2022/05/27 10:33:49;;;;;;;3.85;1.10;;;18.30;98.50;;;;;;5075507;28;20047;-92
2022/05/27 10:36:24;;;;;;;2.20;1.10;;;18.30;98.50;;;;;;5075234;28;20024;-92
2022/05/27 10:39:02;;;;;;;4.30;1.10;;;18.40;98.40;;;;;;5074505;28;20024;-93
2022/05/27 10:41:34;;;;;;;1.90;0.73;;;18.40;98.30;;;;;;5075485;28;20036;-92
2022/05/27 10:44:22;;;;;;;1.73;0.82;;;18.50;98.20;;;;;;5075031;28;20067;-91
2022/05/27 10:46:53;;;;;;;2.15;0.98;;;18.50;98.10;;;;;;5074379;28;20024;-93
2022/05/27 10:49:43;;;;;;;2.65;1.17;;;18.50;98.00;;;;;;5076617;28;20027;-93
2022/05/27 10:52:36;;;;;;;1.05;0.68;;;18.50;97.90;;;;;;5076074;28;20025;-93
2022/05/27 10:55:19;;;;;;;2.35;1.10;;;18.60;97.90;;;;;;5074476;28;20392;-93
2022/05/27 11:04:21;;;;;;;2.05;1.00;;;18.50;97.90;;;;;;5077007;28;20057;-92
2022/05/27 11:06:57;;;;;;;3.13;1.00;;;18.40;97.90;;;;;;5075737;28;20119;-93
2022/05/27 11:09:22;;;;;;;3.13;1.00;;;18.30;98.00;;;;;;5075920;28;20029;-93
2022/05/27 11:12:12;;;;;;;2.05;1.08;;;18.30;98.10;;;;;;5077003;28;20052;-93
2022/05/27 11:17:38;;;;;;;5.78;0.90;;;18.20;98.30;;;;;;5078189;28;20466;-92
2022/05/27 11:20:25;;;;;;;3.10;1.08;;;18.20;98.40;;;;;;5075647;28;20024;-93
2022/05/27 11:23:26;;;;;;;1.83;0.85;;;18.10;98.40;;;;;;5076639;28;20021;-92
2022/05/27 11:26:31;;;;;;;1.70;0.93;;;18.10;98.50;;;;;;5067990;28;20166;-94
2022/05/27 11:29:24;;;;;;;2.08;1.05;;;18.00;98.50;;;;;;5075761;28;20028;-93
2022/05/27 11:32:11;;;;;;;3.35;1.20;;;18.00;98.60;;;;;;5076988;28;20029;-92
2022/05/27 11:35:07;;;;;;;2.35;0.85;;;18.00;98.60;;;;;;5075731;28;20024;-92
2022/05/27 11:37:43;;;;;;;2.75;0.90;;;18.00;98.70;;;;;;5077556;28;20028;-92
2022/05/27 11:40:28;;;;;;;1.60;0.80;;;18.00;98.70;;;;;;5076340;28;20036;-93
2022/05/27 11:43:31;;;;;;;2.35;0.80;;;18.00;98.70;;;;;;5075792;28;20021;-93
2022/05/27 11:46:28;;;;;;;1.88;0.70;;;18.00;98.60;;;;;;5075443;28;20115;-93
2022/05/27 11:49:18;;;;;;;0.82;0.60;;;18.10;98.70;;;;;;5076319;28;20016;-93
2022/05/27 11:52:24;;;;;;;1.17;0.90;;;18.10;98.70;;;;;;5077852;28;20036;-93
2022/05/27 11:55:02;;;;;;;1.52;0.75;;;18.10;98.70;;;;;;5072189;28;20037;-93
2022/05/27 11:57:44;;;;;;;1.92;0.80;;;18.10;98.70;;;;;;5075019;28;20032;-94
2022/05/27 12:00:16;;;;;;;1.48;0.93;;;18.10;98.40;;;;;;5074812;28;20048;-93
2022/05/27 12:03:14;;;;;;;1.55;0.80;;;18.10;98.70;;;;;;5075598;28;20028;-93
2022/05/27 12:05:53;;;;;;;2.45;0.85;;;18.10;98.70;;;;;;5077465;28;20025;-93
2022/05/27 12:09:07;;;;;;;2.10;0.80;;;18.10;98.60;;;;;;5080777;28;20024;-93
2022/05/27 12:11:50;;;;;;;1.17;0.70;;;18.10;98.60;;;;;;5062921;28;20044;-92
2022/05/27 12:14:21;;;;;;;2.08;1.02;;;18.10;98.60;;;;;;5077861;28;20094;-93
2022/05/27 12:16:50;;;;;;;1.98;0.80;;;18.20;98.60;;;;;;5079642;28;20020;-93
2022/05/27 12:19:21;;;;;;;2.03;1.02;;;18.20;98.50;;;;;;5079499;28;20131;-94
2022/05/27 12:22:01;;;;;;;2.00;0.88;;;18.20;98.60;;;;;;5079055;28;20020;-93
2022/05/27 12:24:34;;;;;;;1.55;0.90;;;18.20;98.60;;;;;;5077910;28;20042;-93
2022/05/27 12:27:03;;;;;;;2.03;0.90;;;18.20;98.60;;;;;;5077702;28;20463;-92
2022/05/27 12:29:30;;;;;;;1.73;0.80;;;18.30;98.50;;;;;;5079486;28;20017;-91
2022/05/27 12:31:57;;;;;;;1.45;0.80;;;18.30;98.40;;;;;;5078852;28;20033;-93
2022/05/27 12:34:28;;;;;;;1.73;1.00;;;18.40;98.40;;;;;;5077141;28;20032;-93
2022/05/27 12:37:12;;;;;;;2.35;0.90;;;18.40;98.40;;;;;;5077095;28;20027;-93
2022/05/27 12:39:39;;;;;;;2.22;0.80;;;18.40;98.30;;;;;;5077398;28;20075;-92
2022/05/27 12:42:12;;;;;;;1.83;0.70;;;18.50;98.40;;;;;;5076481;28;20082;-93
2022/05/27 12:44:40;;;;;;;2.92;0.82;;;18.50;98.40;;;;;;5077354;28;20013;-89
2022/05/27 12:47:17;;;;;;;2.90;1.13;;;18.50;98.40;;;;;;5077093;28;20028;-92
2022/05/27 12:49:46;;;;;;;9.32;1.00;;;18.60;98.30;;;;;;5077964;28;20028;-92
2022/05/27 12:52:30;;;;;;;4.10;0.98;;;18.60;98.30;;;;;;5077943;28;20482;-93
2022/05/27 12:54:56;;;;;;;3.15;1.00;;;18.50;98.30;;;;;;5078893;28;20025;-92
2022/05/27 13:01:00;;;;;;;2.38;0.55;;;18.40;98.50;;;;;;5078937;28;20055;-91
2022/05/27 13:03:35;;;;;;;3.00;0.80;;;18.30;98.50;;;;;;5076327;28;20039;-90
2022/05/27 13:06:19;;;;;;;1.52;0.60;;;18.30;98.50;;;;;;5077146;28;20422;-94
2022/05/27 13:08:50;;;;;;;1.90;0.80;;;18.30;98.60;;;;;;5076748;28;20092;-94
2022/05/27 13:11:22;;;;;;;3.08;1.15;;;18.30;98.60;;;;;;5076672;28;20045;-92
2022/05/27 13:14:07;;;;;;;5.90;1.10;;;18.30;98.70;;;;;;5076737;28;20033;-92
2022/05/27 13:16:36;;;;;;;3.38;0.80;;;18.30;98.70;;;;;;5058732;28;20021;-92
2022/05/27 13:19:40;;;;;;;3.65;1.00;;;18.40;98.60;;;;;;5075973;28;20092;-93
2022/05/27 13:22:11;;;;;;;3.42;1.13;;;18.60;98.50;;;;;;5076751;28;20028;-94
2022/05/27 13:24:43;;;;;;;1.92;0.75;;;18.70;98.20;;;;;;5076210;28;20033;-93
2022/05/27 13:27:12;;;;;;;1.10;0.70;;;18.80;98.00;;;;;;5076794;28;20024;-92
2022/05/27 13:29:54;;;;;;;1.02;0.60;;;19.00;97.90;;;;;;5077596;28;20024;-92
2022/05/27 13:32:24;;;;;;;3.60;0.98;;;19.10;97.60;;;;;;5077273;28;20064;-92
2022/05/27 13:34:55;;;;;;;2.33;0.75;;;19.30;97.40;;;;;;5076882;28;20362;-90
2022/05/27 13:37:38;;;;;;;2.40;0.88;;;19.40;97.30;;;;;;5075429;28;20476;-93
2022/05/27 13:40:32;;;;;;;4.00;0.73;;;19.50;97.10;;;;;;5076193;28;20029;-91
2022/05/27 13:43:05;;;;;;;3.42;0.73;;;19.60;97.00;;;;;;5076216;28;20096;-93
2022/05/27 13:45:42;;;;;;;1.92;0.85;;;19.60;97.10;;;;;;5060107;28;20025;-92
2022/05/27 13:48:19;;;;;;;1.42;0.70;;;19.40;97.20;;;;;;5076315;28;20025;-93
2022/05/27 13:50:46;;;;;;;1.50;0.57;;;19.30;97.40;;;;;;5077284;28;20479;-94
2022/05/27 13:53:20;;;;;;;1.08;0.70;;;19.10;97.60;;;;;;5076283;28;20076;-93
2022/05/27 13:55:49;;;;;;;1.75;0.73;;;19.00;97.90;;;;;;5077173;28;20040;-93
2022/05/27 13:58:16;;;;;;;1.63;0.70;;;19.00;98.00;;;;;;5076312;28;20032;-93